| time (UTC) | temp F | wind direction | speed knots | gust knots | rain 1hr in | rain 24hr in | rain mn in | humidity % | barometer mb |
| 20260508063027 | 52 | 322 | 1.7 | 4.3 | 0.00 | 0.07 | 0.01 | 87 | 1017.4 |
| 20260508062527 | 52 | 137 | 1.7 | 3.5 | 0.00 | 0.07 | 0.01 | 87 | 1017.4 |
| 20260508062026 | 52 | 13 | 1.7 | 4.3 | 0.00 | 0.07 | 0.01 | 87 | 1017.1 |
| 20260508061523 | 51 | 43 | 2.6 | 4.3 | 0.00 | 0.07 | 0.01 | 87 | 1017.1 |
| 20260508061022 | 51 | 33 | 0.9 | 3.5 | 0.00 | 0.07 | 0.01 | 88 | 1017.1 |
| 20260508060520 | 51 | 41 | 1.7 | 3.5 | 0.00 | 0.07 | 0.01 | 88 | 1017.0 |
| 20260508060020 | 51 | 44 | 0.9 | 2.6 | 0.00 | 0.07 | 0.01 | 88 | 1017.1 |
| 20260508055517 | 51 | 118 | 1.7 | 2.6 | 0.00 | 0.07 | 0.01 | 88 | 1016.9 |
| 20260508055015 | 51 | 68 | 0.9 | 2.6 | 0.00 | 0.07 | 0.01 | 88 | 1017.0 |
| 20260508054536 | 51 | 93 | 0.9 | 3.5 | 0.00 | 0.07 | 0.01 | 88 | 1016.9 |
| 20260508054033 | 51 | 56 | 0.9 | 3.5 | 0.00 | 0.07 | 0.01 | 89 | 1016.9 |
| 20260508053532 | 51 | 53 | 0.9 | 3.5 | 0.00 | 0.07 | 0.01 | 89 | 1016.9 |
| 20260508053030 | 51 | 36 | 1.7 | 2.6 | 0.00 | 0.07 | 0.01 | 89 | 1016.8 |
| 20260508052528 | 51 | 14 | 1.7 | 3.5 | 0.00 | 0.07 | 0.01 | 89 | 1016.9 |
| 20260508052027 | 51 | 44 | 1.7 | 2.6 | 0.00 | 0.07 | 0.01 | 89 | 1016.8 |
| 20260508051525 | 51 | 14 | 1.7 | 4.3 | 0.00 | 0.07 | 0.01 | 90 | 1016.8 |
| 20260508051025 | 51 | 56 | 0.9 | 2.6 | 0.00 | 0.07 | 0.01 | 90 | 1016.8 |
| 20260508050524 | 51 | 125 | 0.9 | 2.6 | 0.00 | 0.07 | 0.01 | 91 | 1016.9 |
| 20260508050022 | 51 | 118 | 1.7 | 3.5 | 0.00 | 0.07 | 0.01 | 91 | 1016.9 |
| 20260508045519 | 50 | 53 | 0.9 | 2.6 | 0.00 | 0.07 | 0.01 | 91 | 1016.8 |
| 20260508045020 | 50 | 359 | 0.9 | 3.5 | 0.00 | 0.07 | 0.01 | 92 | 1016.8 |
| 20260508044516 | 50 | 137 | 0.9 | 2.6 | 0.00 | 0.07 | 0.01 | 93 | 1016.7 |
| 20260508044035 | 50 | 71 | 0.9 | 2.6 | 0.00 | 0.07 | 0.01 | 93 | 1016.7 |
| 20260508043535 | 50 | 78 | 0.9 | 1.7 | 0.00 | 0.07 | 0.01 | 94 | 1016.6 |
| 20260508043033 | 50 | 101 | 0.9 | 2.6 | 0.00 | 0.07 | 0.01 | 94 | 1016.7 |
| 20260508042532 | 50 | 102 | 0.9 | 3.5 | 0.00 | 0.07 | 0.01 | 94 | 1016.7 |
| 20260508042030 | 50 | 39 | 0.9 | 3.5 | 0.00 | 0.07 | 0.01 | 94 | 1016.8 |
| 20260508041529 | 50 | 25 | 1.7 | 3.5 | 0.00 | 0.07 | 0.01 | 94 | 1016.6 |
| 20260508041026 | 50 | 42 | 0.9 | 1.7 | 0.00 | 0.07 | 0.01 | 94 | 1016.6 |
| 20260508040526 | 51 | 108 | 0.9 | 2.6 | 0.01 | 0.07 | 0.01 | 94 | 1016.5 |
| 20260508040025 | 50 | 72 | 0.9 | 1.7 | 0.01 | 0.07 | 0.01 | 95 | 1016.5 |
| 20260508035522 | 50 | 97 | 0.9 | 1.7 | 0.01 | 0.07 | 0.01 | 95 | 1016.4 |
| 20260508035021 | 50 | 46 | 1.7 | 3.5 | 0.01 | 0.07 | 0.01 | 95 | 1016.4 |
| 20260508034520 | 50 | 106 | 0.9 | 2.6 | 0.01 | 0.07 | 0.01 | 95 | 1016.5 |
| 20260508034017 | 50 | 237 | 0.0 | 1.7 | 0.01 | 0.07 | 0.01 | 95 | 1016.3 |
| 20260508033517 | 50 | 106 | 0.9 | 2.6 | 0.01 | 0.07 | 0.01 | 95 | 1016.2 |
| 20260508033035 | 51 | 133 | 0.0 | 1.7 | 0.01 | 0.07 | 0.01 | 95 | 1016.2 |
| 20260508032533 | 51 | 95 | 0.9 | 2.6 | 0.01 | 0.07 | 0.01 | 95 | 1016.1 |
| 20260508032032 | 50 | 81 | 0.9 | 2.6 | 0.00 | 0.07 | 0.00 | 95 | 1016.1 |
| 20260508031530 | 50 | 55 | 0.9 | 2.6 | 0.00 | 0.07 | 0.00 | 95 | 1016.2 |
| 20260508031030 | 50 | 112 | 0.9 | 2.6 | 0.00 | 0.07 | 0.00 | 96 | 1016.1 |
| 20260508030529 | 50 | 111 | 0.0 | 1.7 | 0.00 | 0.07 | 0.00 | 96 | 1016.2 |
| 20260508030027 | 50 | 140 | 0.9 | 2.6 | 0.00 | 0.07 | 0.00 | 96 | 1016.2 |
| 20260508025524 | 50 | 130 | 0.9 | 2.6 | 0.00 | 0.07 | 0.00 | 96 | 1016.2 |
| 20260508025024 | 50 | 23 | 1.7 | 3.5 | 0.00 | 0.07 | 0.00 | 96 | 1016.2 |
| 20260508024522 | 50 | 97 | 0.9 | 2.6 | 0.00 | 0.07 | 0.00 | 96 | 1016.2 |
| 20260508024021 | 50 | 76 | 0.9 | 2.6 | 0.00 | 0.07 | 0.00 | 96 | 1016.2 |
| 20260508023519 | 50 | 55 | 0.9 | 2.6 | 0.00 | 0.07 | 0.00 | 95 | 1016.1 |
| 20260508023017 | 50 | 110 | 0.0 | 1.7 | 0.00 | 0.07 | 0.00 | 95 | 1016.0 |
| 20260508022516 | 50 | 130 | 0.0 | 1.7 | 0.00 | 0.07 | 0.00 | 95 | 1016.0 |
| 20260508022034 | 50 | 155 | 0.9 | 1.7 | 0.00 | 0.07 | 0.00 | 95 | 1015.8 |
| 20260508021533 | 50 | 101 | 0.9 | 1.7 | 0.00 | 0.07 | 0.00 | 95 | 1015.7 |
| 20260508021031 | 50 | 358 | 1.7 | 3.5 | 0.00 | 0.07 | 0.00 | 95 | 1015.6 |
| 20260508020530 | 50 | 20 | 1.7 | 3.5 | 0.00 | 0.07 | 0.00 | 95 | 1015.6 |
| 20260508020028 | 50 | 34 | 1.7 | 2.6 | 0.00 | 0.07 | 0.00 | 94 | 1015.7 |
| 20260508015527 | 50 | 100 | 1.7 | 3.5 | 0.00 | 0.07 | 0.00 | 94 | 1015.7 |
| 20260508015026 | 50 | 168 | 0.9 | 2.6 | 0.00 | 0.07 | 0.00 | 94 | 1015.9 |
| 20260508014524 | 51 | 160 | 0.0 | 1.7 | 0.00 | 0.07 | 0.00 | 94 | 1015.8 |
| 20260508014023 | 51 | 71 | 0.9 | 3.5 | 0.00 | 0.07 | 0.00 | 94 | 1015.7 |
| 20260508013521 | 51 | 170 | 0.9 | 2.6 | 0.00 | 0.07 | 0.00 | 94 | 1015.7 |
| 20260508013020 | 51 | 123 | 0.9 | 3.5 | 0.00 | 0.07 | 0.00 | 94 | 1015.8 |
| 20260508012518 | 51 | 97 | 0.9 | 3.5 | 0.00 | 0.07 | 0.00 | 94 | 1015.8 |
| 20260508012017 | 51 | 69 | 0.9 | 2.6 | 0.00 | 0.07 | 0.00 | 94 | 1015.8 |
| 20260508011536 | 51 | 119 | 1.7 | 3.5 | 0.00 | 0.07 | 0.00 | 94 | 1015.8 |
| 20260508011034 | 51 | 153 | 1.7 | 2.6 | 0.00 | 0.07 | 0.00 | 94 | 1015.7 |
| 20260508010534 | 51 | 110 | 1.7 | 3.5 | 0.00 | 0.07 | 0.00 | 94 | 1015.9 |
| 20260508010032 | 51 | 337 | 0.9 | 1.7 | 0.00 | 0.07 | 0.00 | 94 | 1015.8 |
| 20260508005529 | 51 | 14 | 1.7 | 1.7 | 0.00 | 0.07 | 0.00 | 93 | 1015.7 |
| 20260508005027 | 51 | 37 | 0.9 | 2.6 | 0.00 | 0.07 | 0.00 | 93 | 1015.8 |
| 20260508004526 | 51 | 357 | 0.9 | 1.7 | 0.00 | 0.07 | 0.00 | 93 | 1015.7 |
| 20260508004026 | 51 | 53 | 0.9 | 2.6 | 0.00 | 0.07 | 0.00 | 93 | 1015.6 |
| 20260508003523 | 51 | 53 | 1.7 | 3.5 | 0.00 | 0.07 | 0.00 | 92 | 1015.6 |
| 20260508003022 | 51 | 46 | 0.9 | 2.6 | 0.00 | 0.07 | 0.00 | 93 | 1015.6 |
| 20260508002520 | 51 | 105 | 1.7 | 2.6 | 0.00 | 0.07 | 0.00 | 93 | 1015.7 |
| 20260508002019 | 51 | 72 | 0.9 | 3.5 | 0.00 | 0.07 | 0.00 | 93 | 1015.7 |
| 20260508001519 | 51 | 90 | 0.9 | 2.6 | 0.00 | 0.07 | 0.00 | 94 | 1015.6 |
| 20260508001016 | 51 | 24 | 1.7 | 3.5 | 0.00 | 0.07 | 0.00 | 94 | 1015.7 |
| 20260508000534 | 51 | 95 | 0.9 | 2.6 | 0.00 | 0.07 | 0.00 | 95 | 1015.8 |
| 20260508000034 | 51 | 139 | 0.9 | 2.6 | 0.00 | 0.07 | 0.00 | 95 | 1015.8 |
| 20260507235532 | 52 | 126 | 1.7 | 3.5 | 0.00 | 0.07 | 0.00 | 95 | 1015.9 |
| 20260507235030 | 52 | 108 | 0.9 | 2.6 | 0.00 | 0.07 | 0.00 | 95 | 1015.8 |
| 20260507234528 | 52 | 146 | 0.0 | 1.7 | 0.00 | 0.07 | 0.00 | 94 | 1015.8 |
| 20260507234027 | 52 | 121 | 0.0 | 1.7 | 0.00 | 0.07 | 0.00 | 94 | 1015.8 |
| 20260507233526 | 52 | 110 | 0.9 | 3.5 | 0.00 | 0.07 | 0.00 | 94 | 1015.8 |
| 20260507233024 | 52 | 153 | 1.7 | 3.5 | 0.00 | 0.07 | 0.00 | 94 | 1015.8 |
| 20260507232523 | 52 | 181 | 0.9 | 1.7 | 0.00 | 0.07 | 0.00 | 94 | 1015.9 |
| 20260507232022 | 52 | 105 | 0.0 | 2.6 | 0.00 | 0.07 | 0.00 | 94 | 1016.0 |
| 20260507231520 | 53 | 6 | 1.7 | 3.5 | 0.00 | 0.07 | 0.00 | 93 | 1015.7 |
| 20260507231018 | 53 | 59 | 0.9 | 2.6 | 0.00 | 0.07 | 0.00 | 93 | 1015.8 |
| 20260507230517 | 53 | 19 | 1.7 | 3.5 | 0.00 | 0.07 | 0.00 | 93 | 1015.8 |
| 20260507230015 | 52 | 12 | 0.9 | 2.6 | 0.00 | 0.07 | 0.00 | 94 | 1015.8 |
| 20260507225535 | 52 | 93 | 0.0 | 1.7 | 0.00 | 0.07 | 0.00 | 94 | 1015.9 |
| 20260507225033 | 52 | 95 | 1.7 | 3.5 | 0.00 | 0.07 | 0.00 | 95 | 1015.8 |
| 20260507224532 | 52 | 39 | 0.9 | 3.5 | 0.00 | 0.07 | 0.00 | 96 | 1015.8 |
| 20260507224030 | 52 | 57 | 0.9 | 2.6 | 0.00 | 0.07 | 0.00 | 96 | 1015.8 |
| 20260507223528 | 52 | 32 | 0.0 | 1.7 | 0.00 | 0.07 | 0.00 | 96 | 1015.7 |
| 20260507223027 | 52 | 180 | 0.0 | 0.9 | 0.00 | 0.07 | 0.00 | 96 | 1015.6 |
| 20260507222526 | 52 | 52 | 0.9 | 3.5 | 0.00 | 0.07 | 0.00 | 96 | 1015.4 |
| 20260507222024 | 52 | 37 | 0.9 | 2.6 | 0.00 | 0.07 | 0.00 | 96 | 1015.4 |
| 20260507221523 | 52 | 330 | 0.0 | 1.7 | 0.00 | 0.07 | 0.00 | 96 | 1015.3 |
| 20260507221021 | 52 | 71 | 0.9 | 2.6 | 0.00 | 0.07 | 0.00 | 96 | 1015.1 |
| 20260507220519 | 53 | 38 | 0.9 | 2.6 | 0.00 | 0.07 | 0.00 | 96 | 1015.2 |
| 20260507220019 | 53 | 96 | 0.9 | 1.7 | 0.00 | 0.07 | 0.00 | 96 | 1015.1 |
| 20260507215516 | 53 | 42 | 0.9 | 1.7 | 0.00 | 0.07 | 0.07 | 96 | 1015.1 |
| 20260507215035 | 53 | 71 | 0.9 | 2.6 | 0.00 | 0.07 | 0.07 | 96 | 1015.0 |
| 20260507214534 | 53 | 73 | 0.0 | 1.7 | 0.00 | 0.07 | 0.07 | 96 | 1015.1 |
| 20260507214032 | 53 | 50 | 0.9 | 1.7 | 0.00 | 0.07 | 0.07 | 96 | 1015.2 |
| 20260507213531 | 53 | 64 | 0.9 | 1.7 | 0.00 | 0.07 | 0.07 | 96 | 1015.1 |
| 20260507213029 | 53 | 65 | 0.9 | 1.7 | 0.00 | 0.07 | 0.07 | 96 | 1015.1 |
| 20260507212528 | 53 | 48 | 0.0 | 1.7 | 0.00 | 0.07 | 0.07 | 95 | 1015.2 |
| 20260507212026 | 54 | 0.0 | 0.0 | 0.01 | 0.07 | 0.07 | 95 | 1015.1 | |
| 20260507211524 | 54 | 0 | 0.9 | 1.7 | 0.01 | 0.08 | 0.07 | 95 | 1015.0 |
| 20260507211023 | 54 | 44 | 0.9 | 1.7 | 0.01 | 0.08 | 0.07 | 94 | 1015.0 |
| 20260507210522 | 54 | 63 | 0.9 | 2.6 | 0.01 | 0.08 | 0.07 | 94 | 1014.8 |
| 20260507210021 | 54 | 48 | 0.9 | 2.6 | 0.01 | 0.09 | 0.07 | 94 | 1014.8 |
| 20260507205519 | 54 | 66 | 0.9 | 1.7 | 0.01 | 0.09 | 0.07 | 94 | 1014.9 |
| 20260507205018 | 54 | 57 | 0.9 | 3.5 | 0.01 | 0.11 | 0.07 | 94 | 1014.8 |
| 20260507204516 | 54 | 63 | 2.6 | 3.5 | 0.01 | 0.11 | 0.07 | 95 | 1014.9 |
| 20260507204034 | 54 | 67 | 1.7 | 3.5 | 0.01 | 0.11 | 0.07 | 95 | 1015.0 |
| 20260507203534 | 55 | 74 | 0.9 | 1.7 | 0.01 | 0.11 | 0.07 | 95 | 1015.0 |
| 20260507203032 | 55 | 71 | 0.9 | 1.7 | 0.01 | 0.11 | 0.06 | 95 | 1015.1 |
| 20260507202531 | 55 | 78 | 0.9 | 1.7 | 0.01 | 0.11 | 0.06 | 94 | 1015.0 |
| 20260507202030 | 55 | 86 | 0.0 | 1.7 | 0.00 | 0.10 | 0.06 | 94 | 1015.0 |
| 20260507201527 | 55 | 126 | 0.0 | 1.7 | 0.01 | 0.10 | 0.06 | 94 | 1015.0 |
| 20260507201025 | 55 | 100 | 0.0 | 0.9 | 0.01 | 0.10 | 0.06 | 94 | 1014.9 |
| 20260507200524 | 55 | 0.0 | 0.9 | 0.01 | 0.10 | 0.06 | 94 | 1015.1 | |
| 20260507200024 | 55 | 180 | 0.0 | 1.7 | 0.02 | 0.10 | 0.06 | 94 | 1015.0 |
| 20260507195521 | 55 | 84 | 0.9 | 1.7 | 0.02 | 0.10 | 0.06 | 93 | 1014.9 |
| 20260507195021 | 55 | 54 | 0.9 | 1.7 | 0.02 | 0.10 | 0.06 | 93 | 1015.0 |
| 20260507194518 | 55 | 116 | 0.9 | 1.7 | 0.03 | 0.10 | 0.06 | 92 | 1014.9 |
| 20260507194018 | 56 | 41 | 0.0 | 1.7 | 0.04 | 0.10 | 0.06 | 92 | 1014.8 |
| 20260507193535 | 56 | 90 | 0.9 | 1.7 | 0.05 | 0.10 | 0.06 | 91 | 1014.9 |
| 20260507193034 | 56 | 102 | 0.0 | 1.7 | 0.06 | 0.10 | 0.06 | 91 | 1014.7 |
| 20260507192533 | 56 | 93 | 0.9 | 1.7 | 0.06 | 0.10 | 0.06 | 91 | 1014.7 |
| 20260507192031 | 56 | 114 | 0.9 | 2.6 | 0.06 | 0.10 | 0.06 | 90 | 1014.7 |
| 20260507191530 | 56 | 52 | 0.9 | 2.6 | 0.05 | 0.09 | 0.05 | 90 | 1014.7 |
| 20260507191028 | 57 | 46 | 1.7 | 2.6 | 0.05 | 0.09 | 0.05 | 89 | 1014.6 |
| 20260507190526 | 57 | 110 | 0.9 | 2.6 | 0.04 | 0.09 | 0.04 | 89 | 1014.6 |
| 20260507190025 | 57 | 58 | 1.7 | 3.5 | 0.04 | 0.08 | 0.04 | 88 | 1014.5 |
| 20260507185524 | 57 | 356 | 0.0 | 1.7 | 0.04 | 0.08 | 0.04 | 87 | 1014.5 |
| 20260507185023 | 58 | 3 | 0.0 | 2.6 | 0.03 | 0.07 | 0.03 | 85 | 1014.4 |
| 20260507184521 | 58 | 92 | 1.7 | 2.6 | 0.02 | 0.07 | 0.02 | 83 | 1014.4 |
| 20260507184019 | 59 | 76 | 0.9 | 3.5 | 0.02 | 0.06 | 0.02 | 81 | 1014.3 |
| 20260507183518 | 59 | 7 | 1.7 | 3.5 | 0.01 | 0.05 | 0.01 | 79 | 1014.2 |
| 20260507183016 | 59 | 47 | 1.7 | 3.5 | 0.00 | 0.04 | 0.00 | 79 | 1014.2 |
| 20260507182534 | 60 | 305 | 0.9 | 1.7 | 0.00 | 0.04 | 0.00 | 78 | 1014.1 |
| 20260507182034 | 60 | 112 | 0.9 | 1.7 | 0.00 | 0.04 | 0.00 | 78 | 1013.9 |
| 20260507181532 | 60 | 26 | 0.9 | 2.6 | 0.00 | 0.04 | 0.00 | 78 | 1013.9 |
| 20260507181031 | 60 | 75 | 0.9 | 1.7 | 0.00 | 0.04 | 0.00 | 78 | 1013.9 |
| 20260507180528 | 60 | 95 | 0.9 | 2.6 | 0.00 | 0.04 | 0.00 | 78 | 1013.8 |
| 20260507180027 | 60 | 89 | 0.9 | 1.7 | 0.00 | 0.04 | 0.00 | 78 | 1013.6 |
| 20260507175527 | 60 | 97 | 0.0 | 1.7 | 0.00 | 0.04 | 0.00 | 78 | 1013.7 |
| 20260507175024 | 60 | 0.0 | 1.7 | 0.00 | 0.04 | 0.00 | 77 | 1013.5 | |
| 20260507174523 | 61 | 35 | 0.9 | 1.7 | 0.00 | 0.04 | 0.00 | 77 | 1013.4 |
| 20260507174023 | 61 | 20 | 0.0 | 1.7 | 0.00 | 0.04 | 0.00 | 76 | 1013.3 |
| 20260507173520 | 61 | 15 | 0.0 | 1.7 | 0.00 | 0.04 | 0.00 | 76 | 1013.3 |
| 20260507173018 | 61 | 64 | 0.9 | 1.7 | 0.00 | 0.04 | 0.00 | 75 | 1013.2 |
| 20260507172518 | 61 | 67 | 0.9 | 2.6 | 0.00 | 0.04 | 0.00 | 75 | 1013.1 |
| 20260507172016 | 61 | 53 | 0.9 | 2.6 | 0.00 | 0.04 | 0.00 | 74 | 1013.1 |
| 20260507171534 | 62 | 36 | 0.9 | 2.6 | 0.00 | 0.04 | 0.00 | 74 | 1013.1 |
| 20260507171034 | 62 | 62 | 0.9 | 2.6 | 0.00 | 0.04 | 0.00 | 74 | 1013.0 |
| 20260507170531 | 62 | 45 | 0.9 | 1.7 | 0.00 | 0.04 | 0.00 | 73 | 1013.0 |
| 20260507170029 | 62 | 358 | 0.9 | 3.5 | 0.00 | 0.04 | 0.00 | 73 | 1012.8 |
| 20260507165529 | 62 | 50 | 0.9 | 2.6 | 0.00 | 0.04 | 0.00 | 73 | 1012.7 |
| 20260507165027 | 62 | 10 | 1.7 | 3.5 | 0.00 | 0.04 | 0.00 | 73 | 1012.7 |
| 20260507164526 | 62 | 26 | 1.7 | 6.1 | 0.00 | 0.04 | 0.00 | 72 | 1012.7 |
| 20260507164024 | 63 | 15 | 0.9 | 2.6 | 0.00 | 0.04 | 0.00 | 72 | 1012.6 |
| 20260507163522 | 63 | 30 | 1.7 | 5.2 | 0.00 | 0.04 | 0.00 | 72 | 1012.6 |
| 20260507163021 | 63 | 0 | 0.9 | 4.3 | 0.00 | 0.04 | 0.00 | 72 | 1012.7 |
| 20260507162520 | 63 | 43 | 1.7 | 5.2 | 0.00 | 0.04 | 0.00 | 72 | 1012.6 |
| 20260507162018 | 63 | 14 | 0.9 | 4.3 | 0.00 | 0.04 | 0.00 | 72 | 1012.6 |
| 20260507161516 | 63 | 48 | 0.9 | 3.5 | 0.00 | 0.04 | 0.00 | 71 | 1012.6 |
| 20260507161037 | 63 | 51 | 1.7 | 3.5 | 0.00 | 0.04 | 0.00 | 71 | 1012.5 |
| 20260507160535 | 63 | 61 | 1.7 | 5.2 | 0.00 | 0.04 | 0.00 | 71 | 1012.5 |
| 20260507160033 | 64 | 32 | 1.7 | 4.3 | 0.00 | 0.04 | 0.00 | 71 | 1012.5 |
| 20260507155531 | 64 | 30 | 1.7 | 4.3 | 0.00 | 0.04 | 0.00 | 71 | 1012.6 |
| 20260507155031 | 64 | 44 | 0.9 | 3.5 | 0.00 | 0.04 | 0.00 | 70 | 1012.6 |
| 20260507154529 | 64 | 30 | 3.5 | 7.8 | 0.00 | 0.04 | 0.00 | 69 | 1012.6 |
| 20260507154026 | 65 | 349 | 1.7 | 4.3 | 0.00 | 0.04 | 0.00 | 68 | 1012.6 |
| 20260507153526 | 65 | 9 | 1.7 | 7.8 | 0.00 | 0.04 | 0.00 | 68 | 1012.6 |
| 20260507153024 | 65 | 10 | 1.7 | 5.2 | 0.00 | 0.04 | 0.00 | 68 | 1012.7 |
| 20260507152522 | 65 | 360 | 1.7 | 5.2 | 0.00 | 0.04 | 0.00 | 68 | 1012.8 |
| 20260507152021 | 65 | 25 | 1.7 | 3.5 | 0.00 | 0.04 | 0.00 | 68 | 1012.7 |
| 20260507151519 | 65 | 360 | 2.6 | 5.2 | 0.00 | 0.04 | 0.00 | 68 | 1012.7 |
| 20260507151018 | 65 | 20 | 1.7 | 4.3 | 0.00 | 0.04 | 0.00 | 68 | 1012.6 |
| 20260507150517 | 66 | 8 | 1.7 | 4.3 | 0.00 | 0.04 | 0.00 | 68 | 1012.6 |
| 20260507150035 | 65 | 30 | 1.7 | 7.0 | 0.00 | 0.04 | 0.00 | 69 | 1012.6 |
| 20260507145533 | 65 | 9 | 1.7 | 4.3 | 0.00 | 0.04 | 0.00 | 69 | 1012.6 |
| 20260507145032 | 66 | 31 | 0.9 | 4.3 | 0.00 | 0.04 | 0.00 | 69 | 1012.6 |
| 20260507144532 | 66 | 8 | 0.9 | 3.5 | 0.00 | 0.04 | 0.00 | 68 | 1012.7 |
| 20260507144030 | 66 | 10 | 1.7 | 4.3 | 0.00 | 0.04 | 0.00 | 68 | 1012.5 |
| 20260507143528 | 66 | 17 | 0.9 | 3.5 | 0.00 | 0.04 | 0.00 | 68 | 1012.4 |
| 20260507143026 | 66 | 1 | 1.7 | 5.2 | 0.00 | 0.04 | 0.00 | 67 | 1012.3 |
| 20260507142524 | 66 | 355 | 1.7 | 4.3 | 0.00 | 0.04 | 0.00 | 68 | 1012.3 |
| 20260507142024 | 66 | 355 | 3.5 | 7.0 | 0.00 | 0.04 | 0.00 | 68 | 1012.3 |
| 20260507141523 | 66 | 341 | 0.9 | 2.6 | 0.00 | 0.04 | 0.00 | 67 | 1012.3 |
| 20260507141020 | 66 | 317 | 1.7 | 4.3 | 0.00 | 0.04 | 0.00 | 68 | 1012.2 |
| 20260507140518 | 66 | 21 | 2.6 | 6.1 | 0.00 | 0.04 | 0.00 | 67 | 1012.1 |
| 20260507140017 | 66 | 25 | 1.7 | 4.3 | 0.00 | 0.04 | 0.00 | 67 | 1012.2 |
| 20260507135515 | 66 | 345 | 2.6 | 5.2 | 0.00 | 0.04 | 0.00 | 67 | 1012.3 |
| 20260507135034 | 65 | 6 | 3.5 | 7.8 | 0.00 | 0.04 | 0.00 | 68 | 1012.4 |
| 20260507134533 | 66 | 359 | 2.6 | 6.1 | 0.00 | 0.04 | 0.00 | 68 | 1012.3 |
| 20260507134032 | 66 | 10 | 2.6 | 6.1 | 0.00 | 0.04 | 0.00 | 68 | 1012.2 |
| 20260507133529 | 66 | 346 | 1.7 | 4.3 | 0.00 | 0.04 | 0.00 | 68 | 1012.2 |
| 20260507133028 | 66 | 27 | 2.6 | 5.2 | 0.00 | 0.04 | 0.00 | 69 | 1012.1 |
| 20260507132526 | 66 | 335 | 2.6 | 5.2 | 0.00 | 0.04 | 0.00 | 68 | 1012.1 |
| 20260507132026 | 66 | 359 | 1.7 | 4.3 | 0.00 | 0.04 | 0.00 | 67 | 1012.1 |
| 20260507131524 | 66 | 306 | 1.7 | 6.1 | 0.00 | 0.04 | 0.00 | 67 | 1012.1 |
| 20260507131022 | 67 | 32 | 1.7 | 7.0 | 0.00 | 0.04 | 0.00 | 67 | 1012.1 |
| 20260507130521 | 66 | 314 | 1.7 | 7.8 | 0.00 | 0.04 | 0.00 | 68 | 1012.1 |
| 20260507130020 | 66 | 354 | 2.6 | 8.7 | 0.00 | 0.04 | 0.00 | 68 | 1011.9 |
| 20260507125519 | 66 | 4 | 1.7 | 4.3 | 0.00 | 0.04 | 0.00 | 68 | 1011.9 |
| 20260507125016 | 67 | 335 | 3.5 | 9.6 | 0.00 | 0.04 | 0.00 | 67 | 1012.0 |
| 20260507124535 | 67 | 13 | 3.5 | 8.7 | 0.00 | 0.04 | 0.00 | 67 | 1011.8 |
| 20260507124035 | 67 | 313 | 3.5 | 7.8 | 0.00 | 0.04 | 0.00 | 67 | 1011.8 |
| 20260507123533 | 67 | 351 | 2.6 | 6.1 | 0.00 | 0.04 | 0.00 | 66 | 1011.7 |
| 20260507123032 | 68 | 5 | 2.6 | 6.1 | 0.00 | 0.04 | 0.00 | 66 | 1011.8 |
| 20260507122530 | 67 | 348 | 2.6 | 8.7 | 0.00 | 0.04 | 0.00 | 66 | 1011.7 |
| 20260507122029 | 68 | 11 | 3.5 | 9.6 | 0.00 | 0.04 | 0.00 | 66 | 1011.8 |
| 20260507121527 | 67 | 336 | 1.7 | 5.2 | 0.00 | 0.04 | 0.00 | 68 | 1011.7 |
| 20260507121025 | 67 | 1 | 3.5 | 7.0 | 0.00 | 0.04 | 0.00 | 68 | 1011.6 |
| 20260507120523 | 67 | 4 | 2.6 | 9.6 | 0.00 | 0.04 | 0.00 | 68 | 1011.5 |
| 20260507120023 | 68 | 343 | 3.5 | 8.7 | 0.00 | 0.04 | 0.00 | 67 | 1011.4 |
| 20260507115521 | 68 | 25 | 1.7 | 4.3 | 0.00 | 0.04 | 0.00 | 67 | 1011.5 |
| 20260507115020 | 69 | 349 | 2.6 | 5.2 | 0.00 | 0.04 | 0.00 | 66 | 1011.4 |
| 20260507114519 | 68 | 356 | 2.6 | 6.1 | 0.00 | 0.04 | 0.00 | 67 | 1011.3 |
| 20260507114016 | 69 | 3 | 2.6 | 11.3 | 0.00 | 0.04 | 0.00 | 65 | 1011.3 |
| 20260507113535 | 70 | 287 | 2.6 | 5.2 | 0.00 | 0.04 | 0.00 | 61 | 1011.2 |
| 20260507113033 | 72 | 215 | 2.6 | 6.1 | 0.00 | 0.04 | 0.00 | 59 | 1011.0 |
| 20260507112531 | 71 | 291 | 1.7 | 5.2 | 0.00 | 0.04 | 0.00 | 59 | 1011.0 |
| 20260507112030 | 71 | 303 | 1.7 | 5.2 | 0.00 | 0.04 | 0.00 | 59 | 1011.0 |
| 20260507111529 | 70 | 212 | 2.6 | 4.3 | 0.00 | 0.04 | 0.00 | 59 | 1011.0 |
| 20260507111027 | 70 | 307 | 1.7 | 4.3 | 0.00 | 0.04 | 0.00 | 60 | 1011.0 |
| 20260507110526 | 71 | 246 | 2.6 | 4.3 | 0.00 | 0.04 | 0.00 | 60 | 1010.8 |
| 20260507110026 | 71 | 256 | 3.5 | 6.1 | 0.00 | 0.04 | 0.00 | 59 | 1010.8 |
| 20260507105524 | 71 | 283 | 1.7 | 4.3 | 0.00 | 0.04 | 0.00 | 58 | 1010.7 |
| 20260507105021 | 72 | 242 | 2.6 | 6.1 | 0.00 | 0.04 | 0.00 | 58 | 1010.7 |
| 20260507104521 | 73 | 239 | 2.6 | 6.1 | 0.00 | 0.04 | 0.00 | 56 | 1010.6 |
| 20260507104020 | 72 | 222 | 2.6 | 7.0 | 0.00 | 0.04 | 0.00 | 57 | 1010.6 |
| 20260507103518 | 71 | 222 | 2.6 | 7.8 | 0.00 | 0.04 | 0.00 | 57 | 1010.4 |
| 20260507103016 | 71 | 215 | 2.6 | 5.2 | 0.00 | 0.04 | 0.00 | 58 | 1010.5 |
| 20260507102535 | 70 | 219 | 2.6 | 4.3 | 0.00 | 0.04 | 0.00 | 59 | 1010.5 |
| 20260507102033 | 71 | 218 | 3.5 | 7.0 | 0.00 | 0.04 | 0.00 | 58 | 1010.4 |
| 20260507101531 | 72 | 226 | 2.6 | 7.0 | 0.00 | 0.04 | 0.00 | 57 | 1010.3 |
| 20260507101030 | 71 | 329 | 1.7 | 4.3 | 0.00 | 0.04 | 0.00 | 57 | 1010.3 |
| 20260507100528 | 71 | 270 | 2.6 | 5.2 | 0.00 | 0.04 | 0.00 | 57 | 1010.3 |
| 20260507100027 | 71 | 255 | 2.6 | 5.2 | 0.00 | 0.04 | 0.00 | 57 | 1010.2 |
| 20260507095527 | 72 | 220 | 2.6 | 6.1 | 0.00 | 0.04 | 0.00 | 57 | 1010.3 |
| 20260507095025 | 72 | 238 | 2.6 | 5.2 | 0.00 | 0.04 | 0.00 | 56 | 1010.2 |
| 20260507094523 | 71 | 261 | 2.6 | 6.1 | 0.00 | 0.04 | 0.00 | 57 | 1010.2 |
| 20260507094021 | 70 | 212 | 3.5 | 7.8 | 0.00 | 0.04 | 0.00 | 59 | 1010.3 |
| 20260507093520 | 70 | 217 | 1.7 | 4.3 | 0.00 | 0.04 | 0.00 | 59 | 1010.2 |
| 20260507093018 | 70 | 210 | 2.6 | 7.0 | 0.00 | 0.04 | 0.00 | 59 | 1010.2 |
| 20260507092517 | 70 | 217 | 0.9 | 2.6 | 0.00 | 0.04 | 0.00 | 59 | 1010.1 |
| 20260507092036 | 70 | 209 | 2.6 | 4.3 | 0.00 | 0.04 | 0.00 | 59 | 1010.1 |
| 20260507091534 | 70 | 208 | 1.7 | 4.3 | 0.00 | 0.04 | 0.00 | 59 | 1010.0 |
| 20260507091033 | 70 | 222 | 1.7 | 4.3 | 0.00 | 0.04 | 0.00 | 60 | 1010.0 |
| 20260507090531 | 71 | 223 | 2.6 | 7.8 | 0.00 | 0.04 | 0.00 | 58 | 1010.0 |
| 20260507090030 | 71 | 224 | 2.6 | 9.6 | 0.00 | 0.04 | 0.00 | 58 | 1010.0 |
| 20260507085528 | 71 | 211 | 0.9 | 3.5 | 0.00 | 0.04 | 0.00 | 62 | 1009.7 |
| 20260507085026 | 70 | 170 | 2.6 | 7.0 | 0.00 | 0.04 | 0.00 | 64 | 1009.6 |
| 20260507084525 | 70 | 182 | 4.3 | 6.1 | 0.00 | 0.04 | 0.00 | 63 | 1009.6 |
| 20260507084023 | 70 | 184 | 3.5 | 7.0 | 0.00 | 0.04 | 0.00 | 62 | 1009.6 |
| 20260507083523 | 70 | 179 | 4.3 | 7.0 | 0.00 | 0.04 | 0.00 | 64 | 1009.5 |
| 20260507083020 | 70 | 184 | 2.6 | 7.0 | 0.00 | 0.04 | 0.00 | 64 | 1009.6 |
| 20260507082519 | 69 | 200 | 4.3 | 8.7 | 0.00 | 0.04 | 0.00 | 65 | 1009.5 |
| 20260507082017 | 69 | 216 | 3.5 | 7.0 | 0.00 | 0.04 | 0.00 | 66 | 1009.5 |
| 20260507081516 | 69 | 193 | 2.6 | 7.8 | 0.00 | 0.04 | 0.00 | 67 | 1009.5 |
| 20260507081035 | 69 | 195 | 3.5 | 5.2 | 0.00 | 0.04 | 0.00 | 67 | 1009.6 |
| 20260507080533 | 68 | 176 | 2.6 | 6.1 | 0.00 | 0.04 | 0.00 | 68 | 1009.6 |
| 20260507080033 | 68 | 174 | 2.6 | 7.0 | 0.00 | 0.04 | 0.00 | 69 | 1009.6 |
| 20260507075530 | 67 | 167 | 3.5 | 5.2 | 0.00 | 0.04 | 0.00 | 70 | 1009.5 |
| 20260507075029 | 67 | 184 | 2.6 | 5.2 | 0.00 | 0.04 | 0.00 | 71 | 1009.5 |
| 20260507074527 | 66 | 157 | 4.3 | 7.8 | 0.00 | 0.04 | 0.00 | 71 | 1009.7 |
| 20260507074027 | 66 | 185 | 4.3 | 7.8 | 0.00 | 0.04 | 0.00 | 72 | 1009.6 |
| 20260507073525 | 65 | 176 | 4.3 | 7.8 | 0.00 | 0.04 | 0.00 | 72 | 1009.5 |
| 20260507073023 | 65 | 185 | 3.5 | 7.0 | 0.00 | 0.04 | 0.00 | 72 | 1009.5 |
| 20260507072521 | 65 | 182 | 3.5 | 5.2 | 0.00 | 0.04 | 0.00 | 74 | 1009.5 |
| 20260507072020 | 65 | 164 | 4.3 | 8.7 | 0.00 | 0.04 | 0.00 | 75 | 1009.5 |
| 20260507071519 | 64 | 170 | 3.5 | 7.0 | 0.00 | 0.04 | 0.00 | 75 | 1009.4 |
| 20260507071017 | 63 | 175 | 2.6 | 4.3 | 0.00 | 0.04 | 0.00 | 76 | 1009.4 |
| 20260507070517 | 63 | 192 | 1.7 | 3.5 | 0.00 | 0.04 | 0.00 | 77 | 1009.3 |
| 20260507070034 | 63 | 173 | 2.6 | 5.2 | 0.00 | 0.04 | 0.00 | 76 | 1009.4 |
| 20260507065532 | 64 | 206 | 1.7 | 3.5 | 0.00 | 0.04 | 0.00 | 76 | 1009.1 |
| 20260507065031 | 64 | 209 | 2.6 | 3.5 | 0.00 | 0.04 | 0.00 | 76 | 1009.1 |
| 20260507064530 | 63 | 158 | 2.6 | 6.1 | 0.00 | 0.04 | 0.00 | 77 | 1009.1 |
| 20260507064040 | 62 | 160 | 3.5 | 6.1 | 0.00 | 0.04 | 0.00 | 79 | 1009.2 |
| 20260507063527 | 62 | 157 | 2.6 | 4.3 | 0.00 | 0.04 | 0.00 | 79 | 1009.2 |